Aviation Digital Data Service (ADDS)

Output produced by TAFs form (0211 UTC 28 August 2016)
found at http://www.aviationweather.gov/adds/tafs/
 
KDEN 280153Z 13009KT 10SM FEW110 SCT140 BKN250 21/03 A3007 RMK AO2 SLP120 T02060028
KDEN 272336Z 2800/2906 13008KT P6SM SCT090 SCT120 BKN220 
     FM280300 17010KT P6SM FEW090 BKN140 
     FM280900 22011KT P6SM SCT140 BKN200 
     FM281400 25006KT P6SM SCT140 
     FM281800 03008KT P6SM FEW090 SCT140 
     FM290100 22010KT P6SM SCT090 BKN140